METAR Data
IDs: Format: Raw Decoded Include TAF

Data at: 2342 UTC 29 May 2020

METAR for:KBRL (Burlington/SE Iowa R, IA, US)
Text:KBRL 292253Z AUTO 34012G18KT 10SM SCT050 20/09 A3010 RMK AO2 SLP192 T02000089
Temperature: 20.0°C ( 68°F)
Dewpoint: 8.9°C ( 48°F) [RH = 49%]
Pressure (altimeter):30.10 inches Hg (1019.4 mb) [Sea level pressure: 1019.2 mb]
Winds:from the NNW (340 degrees) at 14 MPH (12 knots; 6.2 m/s) gusting to 21 MPH (18 knots; 9.3 m/s)
Visibility:10 or more sm (16+ km)
Ceiling:at least 12,000 feet AGL
Clouds: scattered clouds at 5000 feet AGL
QC Flag:automated observation with no human augmentation